Time;durP1;ratioP1;P1;durP2;ratioP2;P2;SDS_P1;SDS_P2;PMS_P1;PMS_P2;Temp;Humidity;BMP_temperature;BMP_pressure;BME280_temperature;BME280_humidity;BME280_pressure;Samples;Min_cycle;Max_cycle;Signal;HPM_P1;HPM_P2
2022/03/16 00:00:25;;;;;;;;;;;21.70;38.40;;;;;;450458;262;2131;-60
2022/03/16 00:02:26;;;;;;;;;;;21.60;38.60;;;;;;450389;263;1184;-59
2022/03/16 00:04:28;;;;;;;;;;;21.60;38.50;;;;;;450503;262;956;-61
2022/03/16 00:06:29;;;;;;;;;;;21.60;38.50;;;;;;450490;262;1076;-60
2022/03/16 00:08:31;;;;;;;;;;;21.60;38.50;;;;;;450358;263;1228;-59
2022/03/16 00:10:32;;;;;;;;;;;21.60;38.60;;;;;;450328;262;1893;-61
2022/03/16 00:12:33;;;;;;;;;;;21.50;38.60;;;;;;450442;262;1420;-61
2022/03/16 00:14:35;;;;;;;;;;;21.60;38.50;;;;;;450441;262;1131;-61
2022/03/16 00:16:36;;;;;;;;;;;21.60;38.50;;;;;;450441;263;1394;-60
2022/03/16 00:18:37;;;;;;;;;;;21.60;38.40;;;;;;450446;262;1240;-60
2022/03/16 00:20:38;;;;;;;;;;;21.70;38.30;;;;;;450391;263;2135;-61
2022/03/16 00:22:41;;;;;;;;;;;21.70;38.20;;;;;;450454;262;1268;-60
2022/03/16 00:24:41;;;;;;;;;;;21.70;38.40;;;;;;450466;262;1612;-60
2022/03/16 00:26:42;;;;;;;;;;;21.60;38.60;;;;;;450461;262;1058;-60
2022/03/16 00:28:43;;;;;;;;;;;21.60;38.50;;;;;;450435;262;1098;-61
2022/03/16 00:30:45;;;;;;;;;;;21.50;38.60;;;;;;450427;263;1206;-60
2022/03/16 00:32:46;;;;;;;;;;;21.60;38.50;;;;;;450407;263;1180;-60
2022/03/16 00:34:47;;;;;;;;;;;21.60;38.50;;;;;;450555;262;1227;-61
2022/03/16 00:36:49;;;;;;;;;;;21.50;38.70;;;;;;450386;263;1062;-61
2022/03/16 00:38:50;;;;;;;;;;;21.60;38.60;;;;;;450400;262;1104;-60
2022/03/16 00:40:52;;;;;;;;;;;21.50;38.70;;;;;;450502;262;2154;-61
2022/03/16 00:42:53;;;;;;;;;;;21.50;38.80;;;;;;450475;262;1034;-61
2022/03/16 00:44:55;;;;;;;;;;;21.60;38.80;;;;;;450378;262;1029;-60
2022/03/16 00:46:56;;;;;;;;;;;21.60;38.70;;;;;;450370;262;1007;-60
2022/03/16 00:48:57;;;;;;;;;;;21.60;38.70;;;;;;450437;263;1225;-60
2022/03/16 00:50:59;;;;;;;;;;;21.60;38.70;;;;;;450518;262;1073;-60
2022/03/16 00:53:00;;;;;;;;;;;21.50;38.80;;;;;;450433;262;1317;-61
2022/03/16 00:55:01;;;;;;;;;;;21.50;38.80;;;;;;450570;262;981;-60
2022/03/16 00:57:03;;;;;;;;;;;21.40;39.00;;;;;;450423;263;1025;-60
2022/03/16 00:59:04;;;;;;;;;;;21.50;38.90;;;;;;450480;262;1076;-61
2022/03/16 01:01:05;;;;;;;;;;;21.40;39.20;;;;;;450456;262;2190;-61
2022/03/16 01:03:07;;;;;;;;;;;21.40;39.20;;;;;;450410;262;1313;-60
2022/03/16 01:05:08;;;;;;;;;;;21.30;39.20;;;;;;450423;263;1166;-60
2022/03/16 01:07:10;;;;;;;;;;;21.40;39.10;;;;;;450345;263;1077;-60
2022/03/16 01:09:11;;;;;;;;;;;21.30;39.10;;;;;;450418;262;1028;-60
2022/03/16 01:11:12;;;;;;;;;;;21.50;39.00;;;;;;450388;262;1139;-60
2022/03/16 01:13:14;;;;;;;;;;;21.50;39.10;;;;;;450411;263;998;-60
2022/03/16 01:15:15;;;;;;;;;;;21.40;39.10;;;;;;450473;262;1099;-60
2022/03/16 01:17:16;;;;;;;;;;;21.40;39.30;;;;;;450554;262;1161;-60
2022/03/16 01:19:17;;;;;;;;;;;21.40;39.10;;;;;;450407;262;1225;-60
2022/03/16 01:21:19;;;;;;;;;;;21.40;39.10;;;;;;450362;263;2202;-60
2022/03/16 01:23:20;;;;;;;;;;;21.40;39.10;;;;;;450545;262;1083;-61
2022/03/16 01:25:22;;;;;;;;;;;21.40;39.30;;;;;;450451;262;1268;-60
2022/03/16 01:27:23;;;;;;;;;;;21.40;39.30;;;;;;450433;262;1068;-60
2022/03/16 01:29:25;;;;;;;;;;;21.40;39.40;;;;;;450396;263;1091;-60
2022/03/16 01:31:26;;;;;;;;;;;21.30;39.50;;;;;;450433;263;979;-60
2022/03/16 01:33:27;;;;;;;;;;;21.40;39.30;;;;;;450464;262;1352;-60
2022/03/16 01:35:29;;;;;;;;;;;21.40;39.30;;;;;;450434;263;981;-60
2022/03/16 01:37:31;;;;;;;;;;;21.40;39.30;;;;;;450368;263;987;-61
2022/03/16 01:39:32;;;;;;;;;;;21.40;39.40;;;;;;450554;262;1101;-61
2022/03/16 01:41:33;;;;;;;;;;;21.40;39.30;;;;;;450411;263;2210;-60
2022/03/16 01:43:35;;;;;;;;;;;21.40;39.20;;;;;;450571;262;1149;-60
2022/03/16 01:45:36;;;;;;;;;;;21.50;39.10;;;;;;450449;263;985;-60
2022/03/16 01:47:37;;;;;;;;;;;22.00;38.10;;;;;;450425;263;1115;-61
2022/03/16 01:49:39;;;;;;;;;;;21.60;38.80;;;;;;450473;262;1160;-60
2022/03/16 01:51:40;;;;;;;;;;;21.60;39.00;;;;;;450405;262;1431;-60
2022/03/16 01:53:41;;;;;;;;;;;21.50;39.10;;;;;;450377;263;985;-60
2022/03/16 01:55:43;;;;;;;;;;;21.40;39.10;;;;;;450432;263;1089;-60
2022/03/16 01:57:44;;;;;;;;;;;21.40;39.20;;;;;;450411;263;1070;-61
2022/03/16 01:59:45;;;;;;;;;;;21.40;39.30;;;;;;450446;263;1065;-61
2022/03/16 02:01:47;;;;;;;;;;;21.30;39.30;;;;;;450421;262;2222;-60
2022/03/16 02:03:48;;;;;;;;;;;21.40;39.30;;;;;;450570;262;1350;-60
2022/03/16 02:05:49;;;;;;;;;;;21.30;39.20;;;;;;450596;262;994;-61
2022/03/16 02:07:51;;;;;;;;;;;21.30;39.30;;;;;;450349;263;1115;-60
2022/03/16 02:09:52;;;;;;;;;;;21.40;39.10;;;;;;450344;263;1226;-60
2022/03/16 02:11:53;;;;;;;;;;;21.40;39.00;;;;;;450435;262;1071;-60
2022/03/16 02:13:55;;;;;;;;;;;21.50;38.80;;;;;;450395;263;1096;-60
2022/03/16 02:15:56;;;;;;;;;;;21.40;39.00;;;;;;450482;262;1067;-61
2022/03/16 02:17:57;;;;;;;;;;;21.40;39.00;;;;;;450373;262;1225;-60
2022/03/16 02:19:59;;;;;;;;;;;21.40;39.20;;;;;;450497;262;2163;-61
2022/03/16 02:22:00;;;;;;;;;;;21.40;39.10;;;;;;450342;263;996;-60
2022/03/16 02:24:01;;;;;;;;;;;21.40;39.00;;;;;;450573;262;1031;-60
2022/03/16 02:26:03;;;;;;;;;;;21.40;39.10;;;;;;450412;262;1006;-60
2022/03/16 02:28:04;;;;;;;;;;;21.40;39.10;;;;;;450413;263;1056;-61
2022/03/16 02:30:05;;;;;;;;;;;21.30;39.30;;;;;;450452;262;1103;-60
2022/03/16 02:32:07;;;;;;;;;;;21.30;39.30;;;;;;450464;262;1001;-61
2022/03/16 02:34:08;;;;;;;;;;;21.40;39.10;;;;;;450403;262;1187;-61
2022/03/16 02:36:09;;;;;;;;;;;21.30;39.00;;;;;;450488;262;998;-60
2022/03/16 02:38:11;;;;;;;;;;;21.30;38.90;;;;;;450495;262;1181;-60
2022/03/16 02:40:12;;;;;;;;;;;21.30;39.10;;;;;;450411;263;2139;-60
2022/03/16 02:42:13;;;;;;;;;;;21.40;39.10;;;;;;450377;262;1129;-60
2022/03/16 02:44:15;;;;;;;;;;;21.40;39.00;;;;;;450554;262;1048;-60
2022/03/16 02:46:16;;;;;;;;;;;21.40;39.00;;;;;;450423;263;1078;-61
2022/03/16 02:48:17;;;;;;;;;;;21.40;39.00;;;;;;450480;262;981;-60
2022/03/16 02:50:19;;;;;;;;;;;21.40;39.00;;;;;;450405;263;1159;-60
2022/03/16 02:52:21;;;;;;;;;;;21.40;38.80;;;;;;450354;262;1193;-60
2022/03/16 02:54:21;;;;;;;;;;;21.40;38.90;;;;;;450469;262;2206;-60
2022/03/16 02:56:27;;;;;;;;;;;21.40;38.90;;;;;;450602;262;1175;-60
2022/03/16 02:58:24;;;;;;;;;;;21.40;38.90;;;;;;450571;262;1357;-60
2022/03/16 03:00:26;;;;;;;;;;;21.50;38.60;;;;;;450625;262;2143;-61
2022/03/16 03:02:28;;;;;;;;;;;21.40;38.70;;;;;;450720;262;1091;-60
2022/03/16 03:04:29;;;;;;;;;;;21.50;38.70;;;;;;450486;263;1046;-60
2022/03/16 03:06:31;;;;;;;;;;;21.40;38.80;;;;;;450380;263;1141;-60
2022/03/16 03:08:32;;;;;;;;;;;21.30;39.00;;;;;;450318;263;1016;-60
2022/03/16 03:10:33;;;;;;;;;;;21.30;39.00;;;;;;450457;263;1064;-61
2022/03/16 03:12:35;;;;;;;;;;;21.20;39.10;;;;;;450440;263;1149;-60
2022/03/16 03:14:36;;;;;;;;;;;21.30;39.00;;;;;;450633;262;1253;-60
2022/03/16 03:16:38;;;;;;;;;;;21.30;39.00;;;;;;450429;263;1075;-60
2022/03/16 03:18:39;;;;;;;;;;;21.30;39.00;;;;;;450577;262;1043;-60
2022/03/16 03:20:40;;;;;;;;;;;21.30;39.00;;;;;;450388;263;2163;-60
2022/03/16 03:22:42;;;;;;;;;;;21.30;39.00;;;;;;450432;262;1115;-60
2022/03/16 03:24:44;;;;;;;;;;;21.30;38.80;;;;;;450447;263;982;-61
2022/03/16 03:26:45;;;;;;;;;;;21.50;38.60;;;;;;450511;262;1095;-61
2022/03/16 03:28:47;;;;;;;;;;;21.50;38.50;;;;;;450549;262;1092;-60
2022/03/16 03:30:48;;;;;;;;;;;21.40;38.70;;;;;;450570;262;995;-60
2022/03/16 03:32:49;;;;;;;;;;;21.30;38.80;;;;;;450299;263;1061;-60
2022/03/16 03:34:51;;;;;;;;;;;21.40;38.60;;;;;;450499;262;988;-60
2022/03/16 03:36:53;;;;;;;;;;;21.30;38.80;;;;;;450388;262;1975;-60
2022/03/16 03:38:53;;;;;;;;;;;21.30;38.70;;;;;;450366;262;1407;-60
2022/03/16 03:40:55;;;;;;;;;;;21.30;38.70;;;;;;450450;263;2210;-61
2022/03/16 03:42:56;;;;;;;;;;;21.30;38.80;;;;;;450515;262;1095;-60
2022/03/16 03:44:57;;;;;;;;;;;21.30;38.60;;;;;;450441;262;1008;-60
2022/03/16 03:46:59;;;;;;;;;;;21.30;38.70;;;;;;450371;263;991;-60
2022/03/16 03:49:00;;;;;;;;;;;21.40;38.50;;;;;;450424;262;1066;-60
2022/03/16 03:51:01;;;;;;;;;;;21.30;38.50;;;;;;450500;262;1202;-60
2022/03/16 03:53:02;;;;;;;;;;;21.30;38.50;;;;;;450424;262;1232;-60
2022/03/16 03:55:04;;;;;;;;;;;21.30;38.30;;;;;;450441;263;1115;-61
2022/03/16 03:57:05;;;;;;;;;;;21.40;38.30;;;;;;450515;262;1010;-60
2022/03/16 03:59:07;;;;;;;;;;;21.30;38.50;;;;;;450447;263;1128;-60
2022/03/16 04:01:08;;;;;;;;;;;21.30;38.40;;;;;;450569;262;2135;-60
2022/03/16 04:03:09;;;;;;;;;;;21.20;38.40;;;;;;450568;262;1103;-59
2022/03/16 04:05:11;;;;;;;;;;;21.30;38.40;;;;;;450553;262;1220;-60
2022/03/16 04:07:12;;;;;;;;;;;21.20;38.30;;;;;;450338;262;1180;-60
2022/03/16 04:09:13;;;;;;;;;;;21.30;38.20;;;;;;450410;263;1145;-60
2022/03/16 04:11:14;;;;;;;;;;;21.30;38.20;;;;;;450394;262;1004;-61
2022/03/16 04:13:16;;;;;;;;;;;21.30;38.10;;;;;;450407;263;1020;-61
2022/03/16 04:15:18;;;;;;;;;;;21.30;38.00;;;;;;450445;262;1185;-60
2022/03/16 04:17:19;;;;;;;;;;;21.30;37.90;;;;;;450463;262;1096;-60
2022/03/16 04:19:20;;;;;;;;;;;21.40;37.80;;;;;;450622;262;1025;-61
2022/03/16 04:21:22;;;;;;;;;;;21.40;37.80;;;;;;450511;262;2199;-61
2022/03/16 04:23:23;;;;;;;;;;;21.30;37.80;;;;;;450419;263;969;-60
2022/03/16 04:25:24;;;;;;;;;;;21.40;37.70;;;;;;450403;263;1092;-60
2022/03/16 04:27:26;;;;;;;;;;;21.30;37.60;;;;;;450431;262;1091;-61
2022/03/16 04:29:27;;;;;;;;;;;21.30;37.70;;;;;;450480;262;975;-61
2022/03/16 04:31:28;;;;;;;;;;;21.30;37.60;;;;;;450579;262;1204;-60
2022/03/16 04:33:30;;;;;;;;;;;21.20;37.60;;;;;;450475;262;986;-61
2022/03/16 04:35:31;;;;;;;;;;;21.30;37.40;;;;;;450420;262;1544;-61
2022/03/16 04:37:33;;;;;;;;;;;21.30;37.20;;;;;;450377;262;1258;-60
2022/03/16 04:39:35;;;;;;;;;;;21.30;37.40;;;;;;450443;262;1063;-60
2022/03/16 04:41:36;;;;;;;;;;;21.30;37.20;;;;;;450480;262;2147;-60
2022/03/16 04:43:37;;;;;;;;;;;21.30;37.20;;;;;;450484;262;1054;-60
2022/03/16 04:45:39;;;;;;;;;;;21.30;37.20;;;;;;450409;263;1094;-59
2022/03/16 04:47:40;;;;;;;;;;;21.30;37.20;;;;;;450354;262;1462;-60
2022/03/16 04:49:41;;;;;;;;;;;21.30;37.20;;;;;;450525;262;976;-60
2022/03/16 04:51:43;;;;;;;;;;;21.30;37.00;;;;;;450351;263;1187;-60
2022/03/16 04:53:44;;;;;;;;;;;21.30;37.00;;;;;;450401;262;981;-61
2022/03/16 04:55:45;;;;;;;;;;;21.20;37.10;;;;;;450348;263;1528;-60
2022/03/16 04:57:47;;;;;;;;;;;21.20;37.00;;;;;;450368;262;993;-61
2022/03/16 04:59:48;;;;;;;;;;;21.30;36.90;;;;;;450398;263;1439;-60
2022/03/16 05:01:49;;;;;;;;;;;21.30;36.80;;;;;;450425;262;2198;-60
2022/03/16 05:03:50;;;;;;;;;;;21.40;36.70;;;;;;450477;262;1155;-60
2022/03/16 05:05:52;;;;;;;;;;;21.40;36.50;;;;;;450404;263;1068;-59
2022/03/16 05:07:53;;;;;;;;;;;21.40;36.50;;;;;;450315;263;1220;-61
2022/03/16 05:09:54;;;;;;;;;;;21.40;36.50;;;;;;450322;263;1062;-60
2022/03/16 05:11:56;;;;;;;;;;;21.40;36.40;;;;;;450325;262;992;-61
2022/03/16 05:13:57;;;;;;;;;;;21.40;36.50;;;;;;450339;263;1010;-60
2022/03/16 05:15:58;;;;;;;;;;;21.30;36.60;;;;;;450355;263;981;-61
2022/03/16 05:18:00;;;;;;;;;;;21.30;36.60;;;;;;450251;263;1233;-61
2022/03/16 05:20:01;;;;;;;;;;;21.20;36.60;;;;;;450373;262;1074;-61
2022/03/16 05:22:02;;;;;;;;;;;21.20;36.50;;;;;;450306;262;2194;-60
2022/03/16 05:24:04;;;;;;;;;;;21.30;36.40;;;;;;450304;263;997;-60
2022/03/16 05:26:05;;;;;;;;;;;21.20;36.60;;;;;;450480;262;1082;-60
2022/03/16 05:28:06;;;;;;;;;;;21.20;36.40;;;;;;450352;263;987;-61
2022/03/16 05:30:08;;;;;;;;;;;21.20;36.30;;;;;;450529;262;1088;-61
2022/03/16 05:32:09;;;;;;;;;;;21.30;36.30;;;;;;450475;262;1395;-61
2022/03/16 05:34:10;;;;;;;;;;;21.40;36.10;;;;;;450314;263;965;-61
2022/03/16 05:36:12;;;;;;;;;;;21.20;36.30;;;;;;450319;263;1078;-61
2022/03/16 05:38:13;;;;;;;;;;;21.30;36.20;;;;;;450267;262;1276;-60
2022/03/16 05:40:14;;;;;;;;;;;21.30;36.20;;;;;;450254;262;978;-61
2022/03/16 05:42:15;;;;;;;;;;;21.30;36.20;;;;;;450084;263;2210;-60
2022/03/16 05:44:17;;;;;;;;;;;21.30;36.20;;;;;;450172;262;1157;-60
2022/03/16 05:46:18;;;;;;;;;;;21.20;36.20;;;;;;450249;262;1072;-61
2022/03/16 05:48:19;;;;;;;;;;;21.20;36.20;;;;;;450242;263;1137;-61
2022/03/16 05:50:21;;;;;;;;;;;21.20;36.20;;;;;;450157;262;1250;-60
2022/03/16 05:52:22;;;;;;;;;;;21.20;36.20;;;;;;450160;262;1153;-61
2022/03/16 05:54:23;;;;;;;;;;;21.20;36.20;;;;;;450189;262;1007;-61
2022/03/16 05:56:25;;;;;;;;;;;21.20;36.20;;;;;;450140;262;1096;-60
2022/03/16 05:58:26;;;;;;;;;;;21.20;36.10;;;;;;450200;262;1006;-61
2022/03/16 06:00:27;;;;;;;;;;;21.20;36.10;;;;;;450278;262;1065;-61
2022/03/16 06:02:29;;;;;;;;;;;21.20;36.00;;;;;;450259;262;2202;-61
2022/03/16 06:04:30;;;;;;;;;;;21.20;36.00;;;;;;450283;263;1061;-61
2022/03/16 06:06:31;;;;;;;;;;;21.20;36.00;;;;;;450198;262;1207;-60
2022/03/16 06:08:33;;;;;;;;;;;21.30;35.90;;;;;;450160;263;1220;-61
2022/03/16 06:10:34;;;;;;;;;;;21.40;35.80;;;;;;450145;262;1011;-61
2022/03/16 06:12:35;;;;;;;;;;;21.30;35.80;;;;;;450081;263;1080;-61
2022/03/16 06:14:37;;;;;;;;;;;21.40;35.70;;;;;;450112;263;1384;-60
2022/03/16 06:16:38;;;;;;;;;;;21.30;35.70;;;;;;450134;262;1060;-60
2022/03/16 06:18:39;;;;;;;;;;;21.30;35.90;;;;;;450107;263;1106;-60
2022/03/16 06:20:41;;;;;;;;;;;21.30;35.80;;;;;;450193;263;1177;-61
2022/03/16 06:22:42;;;;;;;;;;;21.30;35.80;;;;;;450207;262;2199;-61
2022/03/16 06:24:43;;;;;;;;;;;21.30;35.80;;;;;;450295;262;1095;-61
2022/03/16 06:26:45;;;;;;;;;;;21.30;35.80;;;;;;450140;262;1069;-61
2022/03/16 06:28:46;;;;;;;;;;;21.20;35.90;;;;;;450164;262;1057;-60
2022/03/16 06:30:47;;;;;;;;;;;21.20;35.80;;;;;;450205;262;1127;-60
2022/03/16 06:32:48;;;;;;;;;;;21.20;35.80;;;;;;450147;262;1044;-61
2022/03/16 06:34:50;;;;;;;;;;;21.30;35.70;;;;;;450198;262;1089;-60
2022/03/16 06:36:51;;;;;;;;;;;21.20;35.90;;;;;;450086;262;1076;-60
2022/03/16 06:38:52;;;;;;;;;;;21.30;35.60;;;;;;450101;262;1223;-61
2022/03/16 06:40:54;;;;;;;;;;;21.30;35.60;;;;;;450120;263;1028;-60
2022/03/16 06:42:55;;;;;;;;;;;21.40;35.40;;;;;;450092;262;2210;-61
2022/03/16 06:44:56;;;;;;;;;;;21.40;35.60;;;;;;450162;262;1085;-61
2022/03/16 06:46:58;;;;;;;;;;;21.30;35.60;;;;;;450152;262;1107;-60
2022/03/16 06:48:59;;;;;;;;;;;21.40;35.30;;;;;;450013;262;1081;-60
2022/03/16 06:51:00;;;;;;;;;;;21.40;35.50;;;;;;450158;263;1043;-60
2022/03/16 06:53:02;;;;;;;;;;;21.40;35.60;;;;;;450152;263;1231;-61
2022/03/16 06:55:03;;;;;;;;;;;21.40;35.40;;;;;;450136;262;1055;-61
2022/03/16 06:57:04;;;;;;;;;;;21.30;35.40;;;;;;449915;263;1061;-60
2022/03/16 06:59:06;;;;;;;;;;;21.40;35.30;;;;;;449963;263;1101;-60
2022/03/16 07:01:07;;;;;;;;;;;21.40;35.40;;;;;;449995;262;1322;-61
2022/03/16 07:03:08;;;;;;;;;;;21.40;35.40;;;;;;450162;262;2219;-60
2022/03/16 07:05:11;;;;;;;;;;;21.40;35.20;;;;;;450103;262;1018;-60
2022/03/16 07:07:11;;;;;;;;;;;21.40;35.20;;;;;;449997;263;2241;-61
2022/03/16 07:09:12;;;;;;;;;;;21.40;35.20;;;;;;450080;262;1351;-60
2022/03/16 07:11:14;;;;;;;;;;;21.40;35.20;;;;;;449874;262;1135;-60
2022/03/16 07:13:15;;;;;;;;;;;21.50;35.20;;;;;;449976;263;1034;-61
2022/03/16 07:15:16;;;;;;;;;;;21.60;35.00;;;;;;449906;262;1095;-60
2022/03/16 07:17:18;;;;;;;;;;;21.60;35.00;;;;;;450022;263;1055;-61
2022/03/16 07:19:19;;;;;;;;;;;21.60;34.80;;;;;;450040;262;1074;-61
2022/03/16 07:21:20;;;;;;;;;;;21.70;34.70;;;;;;450022;263;1093;-60
2022/03/16 07:23:22;;;;;;;;;;;21.70;34.70;;;;;;449973;263;2151;-61
2022/03/16 07:25:23;;;;;;;;;;;21.80;34.60;;;;;;450025;263;1058;-60
2022/03/16 07:27:24;;;;;;;;;;;21.70;34.60;;;;;;449969;262;1161;-60
2022/03/16 07:29:26;;;;;;;;;;;21.60;34.90;;;;;;449891;263;1091;-61
2022/03/16 07:31:27;;;;;;;;;;;21.60;35.00;;;;;;450065;262;1085;-60
2022/03/16 07:33:28;;;;;;;;;;;21.40;35.10;;;;;;449998;262;1067;-59
2022/03/16 07:35:30;;;;;;;;;;;21.40;35.20;;;;;;449926;263;1251;-61
2022/03/16 07:37:31;;;;;;;;;;;21.50;35.00;;;;;;449899;262;1100;-61
2022/03/16 07:39:32;;;;;;;;;;;21.60;34.90;;;;;;449938;262;1242;-61
2022/03/16 07:41:34;;;;;;;;;;;21.40;35.20;;;;;;449661;262;1285;-61
2022/03/16 07:43:35;;;;;;;;;;;21.50;35.20;;;;;;449637;262;2206;-61
2022/03/16 07:45:36;;;;;;;;;;;21.50;35.20;;;;;;449678;262;1100;-60
2022/03/16 07:47:38;;;;;;;;;;;21.50;35.10;;;;;;449650;263;1075;-60
2022/03/16 07:49:39;;;;;;;;;;;21.50;35.10;;;;;;449682;262;1107;-61
2022/03/16 07:51:40;;;;;;;;;;;21.50;35.30;;;;;;449729;263;1086;-61
2022/03/16 07:53:41;;;;;;;;;;;21.40;35.40;;;;;;449854;262;1181;-61
2022/03/16 07:55:45;;;;;;;;;;;21.50;35.20;;;;;;449786;262;1017;-60
2022/03/16 07:57:44;;;;;;;;;;;21.50;35.10;;;;;;450015;262;1483;-60
2022/03/16 07:59:46;;;;;;;;;;;21.50;35.00;;;;;;449589;263;1067;-61
2022/03/16 08:01:47;;;;;;;;;;;21.50;35.00;;;;;;449254;262;1055;-60
2022/03/16 08:03:48;;;;;;;;;;;21.60;34.90;;;;;;449308;262;2132;-60
2022/03/16 08:05:49;;;;;;;;;;;21.60;35.00;;;;;;449677;263;1132;-60
2022/03/16 08:07:51;;;;;;;;;;;21.50;35.00;;;;;;449510;262;1174;-61
2022/03/16 08:09:52;;;;;;;;;;;21.60;35.00;;;;;;449733;262;1196;-60
2022/03/16 08:11:53;;;;;;;;;;;21.60;34.80;;;;;;449741;262;1180;-61
2022/03/16 08:13:55;;;;;;;;;;;21.70;34.80;;;;;;449732;263;1210;-60
2022/03/16 08:15:56;;;;;;;;;;;21.70;34.80;;;;;;449818;262;1101;-60
2022/03/16 08:17:57;;;;;;;;;;;21.60;34.80;;;;;;449827;262;1078;-60
2022/03/16 08:19:59;;;;;;;;;;;21.60;34.80;;;;;;449786;263;1125;-60
2022/03/16 08:22:01;;;;;;;;;;;21.60;34.80;;;;;;449706;262;1197;-61
2022/03/16 08:24:01;;;;;;;;;;;21.70;34.80;;;;;;449684;262;2353;-60
2022/03/16 08:26:03;;;;;;;;;;;21.70;34.70;;;;;;449800;262;1103;-60
2022/03/16 08:28:04;;;;;;;;;;;21.60;34.70;;;;;;449705;263;1200;-61
2022/03/16 08:30:05;;;;;;;;;;;21.70;34.70;;;;;;449595;262;1135;-60
2022/03/16 08:32:07;;;;;;;;;;;21.70;34.70;;;;;;449545;262;1102;-61
2022/03/16 08:34:08;;;;;;;;;;;21.60;34.70;;;;;;449625;262;1084;-60
2022/03/16 08:36:09;;;;;;;;;;;21.60;34.70;;;;;;449451;262;1095;-59
2022/03/16 08:38:11;;;;;;;;;;;21.60;34.70;;;;;;449520;262;1105;-61
2022/03/16 08:40:15;;;;;;;;;;;21.60;34.60;;;;;;449636;263;1204;-60
2022/03/16 08:42:14;;;;;;;;;;;21.90;34.20;;;;;;449687;262;2144;-61
2022/03/16 08:44:15;;;;;;;;;;;22.20;33.70;;;;;;449693;262;1319;-61
2022/03/16 08:46:16;;;;;;;;;;;22.20;33.60;;;;;;449561;263;2147;-61
2022/03/16 08:48:17;;;;;;;;;;;22.20;33.70;;;;;;449620;263;1157;-60
2022/03/16 08:50:18;;;;;;;;;;;22.50;33.20;;;;;;449566;262;1211;-60
2022/03/16 08:52:20;;;;;;;;;;;22.80;32.60;;;;;;449564;262;1136;-60
2022/03/16 08:54:21;;;;;;;;;;;23.20;32.00;;;;;;449575;263;1321;-61
2022/03/16 08:56:22;;;;;;;;;;;23.70;31.50;;;;;;449749;262;1074;-61
2022/03/16 08:58:24;;;;;;;;;;;24.20;30.60;;;;;;449819;262;1104;-61
2022/03/16 09:00:25;;;;;;;;;;;25.10;29.70;;;;;;449551;262;1078;-61
2022/03/16 09:02:26;;;;;;;;;;;25.60;29.30;;;;;;449611;263;2211;-61
2022/03/16 09:04:28;;;;;;;;;;;26.10;28.90;;;;;;449591;262;1188;-61
2022/03/16 09:06:29;;;;;;;;;;;26.50;28.60;;;;;;449677;263;1058;-61
2022/03/16 09:08:32;;;;;;;;;;;26.50;28.50;;;;;;449608;263;1076;-61
2022/03/16 09:10:34;;;;;;;;;;;25.70;29.30;;;;;;449605;262;1218;-61
2022/03/16 09:12:34;;;;;;;;;;;24.70;30.30;;;;;;449766;262;1328;-61
2022/03/16 09:14:35;;;;;;;;;;;24.00;31.30;;;;;;449744;262;1135;-61
2022/03/16 09:16:37;;;;;;;;;;;23.40;32.00;;;;;;449522;263;1132;-61
2022/03/16 09:18:38;;;;;;;;;;;23.10;32.60;;;;;;449629;262;1093;-60
2022/03/16 09:20:39;;;;;;;;;;;22.70;33.00;;;;;;449655;263;1220;-61
2022/03/16 09:22:40;;;;;;;;;;;22.50;33.30;;;;;;449722;262;2146;-60
2022/03/16 09:24:43;;;;;;;;;;;22.40;33.50;;;;;;449729;262;1135;-60
2022/03/16 09:26:43;;;;;;;;;;;22.20;33.60;;;;;;449466;263;1371;-60
2022/03/16 09:28:45;;;;;;;;;;;22.20;33.80;;;;;;449432;263;1192;-61
2022/03/16 09:30:47;;;;;;;;;;;22.10;34.00;;;;;;449521;262;1155;-60
2022/03/16 09:32:48;;;;;;;;;;;22.00;34.00;;;;;;449640;262;1284;-60
2022/03/16 09:34:49;;;;;;;;;;;21.90;34.20;;;;;;449607;262;1082;-60
2022/03/16 09:36:50;;;;;;;;;;;21.80;34.20;;;;;;449547;262;1075;-60
2022/03/16 09:38:55;;;;;;;;;;;21.70;34.30;;;;;;449624;262;1226;-61
2022/03/16 09:40:53;;;;;;;;;;;21.60;34.40;;;;;;449620;263;2182;-61
2022/03/16 09:42:54;;;;;;;;;;;21.60;34.60;;;;;;449716;262;2127;-61
2022/03/16 09:44:56;;;;;;;;;;;21.50;34.50;;;;;;449650;263;1093;-60
2022/03/16 09:46:57;;;;;;;;;;;21.40;34.60;;;;;;449505;262;1135;-60
2022/03/16 09:48:58;;;;;;;;;;;21.40;34.70;;;;;;449614;262;1240;-60
2022/03/16 09:51:00;;;;;;;;;;;21.40;34.70;;;;;;449502;263;1151;-61
2022/03/16 09:53:01;;;;;;;;;;;21.40;34.80;;;;;;449604;262;1322;-60
2022/03/16 09:55:03;;;;;;;;;;;21.30;34.90;;;;;;449653;262;1148;-60
2022/03/16 09:57:04;;;;;;;;;;;21.30;34.90;;;;;;449651;262;1372;-60
2022/03/16 09:59:05;;;;;;;;;;;21.20;34.90;;;;;;449695;263;1093;-61
2022/03/16 10:01:07;;;;;;;;;;;21.30;35.00;;;;;;449612;262;1065;-60
2022/03/16 10:03:08;;;;;;;;;;;21.20;35.00;;;;;;449620;263;2202;-61
2022/03/16 10:05:09;;;;;;;;;;;21.20;35.00;;;;;;449806;262;1093;-60
2022/03/16 10:07:11;;;;;;;;;;;21.40;34.70;;;;;;449446;262;1154;-60
2022/03/16 10:13:50;;;;;;;;;;;21.10;35.10;;;;;;449499;264;1102;-60
2022/03/16 10:15:53;;;;;;;;;;;21.10;35.10;;;;;;449623;262;1120;-61
2022/03/16 10:17:54;;;;;;;;;;;21.10;35.10;;;;;;450037;262;993;-61
2022/03/16 10:19:57;;;;;;;;;;;21.10;35.20;;;;;;449771;262;811;-61
2022/03/16 10:21:57;;;;;;;;;;;21.00;35.20;;;;;;449273;263;2175;-60
2022/03/16 10:23:58;;;;;;;;;;;21.10;35.20;;;;;;449501;262;2214;-60
2022/03/16 10:26:00;;;;;;;;;;;20.90;35.30;;;;;;449495;262;1112;-61
2022/03/16 10:28:02;;;;;;;;;;;21.00;35.20;;;;;;449551;262;1193;-61
2022/03/16 10:30:02;;;;;;;;;;;21.00;35.30;;;;;;449554;263;2442;-61
2022/03/16 10:32:04;;;;;;;;;;;21.00;35.20;;;;;;449411;262;1445;-61
2022/03/16 10:34:06;;;;;;;;;;;21.00;35.20;;;;;;449452;262;1155;-61
2022/03/16 10:36:06;;;;;;;;;;;20.90;35.40;;;;;;449353;263;1910;-60
2022/03/16 10:38:08;;;;;;;;;;;20.90;35.40;;;;;;449433;262;1129;-61
2022/03/16 10:40:15;;;;;;;;;;;20.90;35.40;;;;;;449414;262;1131;-60
2022/03/16 10:46:55;;;;;;;;;;;20.90;35.60;;;;;;444695;265;1122;-61
2022/03/16 10:48:56;;;;;;;;;;;20.90;35.50;;;;;;449516;263;1088;-61
2022/03/16 10:50:58;;;;;;;;;;;21.00;35.40;;;;;;449717;262;1312;-61
2022/03/16 10:53:00;;;;;;;;;;;20.90;35.50;;;;;;449420;263;1125;-60
2022/03/16 10:55:02;;;;;;;;;;;20.90;35.50;;;;;;449325;263;1899;-60
2022/03/16 10:57:03;;;;;;;;;;;20.90;35.50;;;;;;449391;262;1554;-60
2022/03/16 10:59:04;;;;;;;;;;;20.90;35.50;;;;;;449590;262;1181;-60
2022/03/16 11:01:06;;;;;;;;;;;20.80;35.70;;;;;;449824;263;1169;-60
2022/03/16 11:03:07;;;;;;;;;;;20.70;35.80;;;;;;449837;262;2272;-60
2022/03/16 11:05:08;;;;;;;;;;;20.80;35.70;;;;;;449571;262;1130;-60
2022/03/16 11:07:09;;;;;;;;;;;20.90;35.60;;;;;;449442;262;1152;-61
2022/03/16 11:09:11;;;;;;;;;;;20.80;35.60;;;;;;449543;262;1120;-60
2022/03/16 11:13:32;;;;;;;;;;;20.80;35.60;;;;;;449526;265;1110;-60
2022/03/16 11:15:33;;;;;;;;;;;20.70;35.70;;;;;;449518;263;1133;-60
2022/03/16 11:17:35;;;;;;;;;;;20.80;35.70;;;;;;449564;262;1100;-61
2022/03/16 11:19:36;;;;;;;;;;;20.70;35.70;;;;;;449626;262;2253;-60
2022/03/16 11:21:37;;;;;;;;;;;20.80;35.80;;;;;;449572;262;1074;-61
2022/03/16 11:25:58;;;;;;;;;;;20.70;36.00;;;;;;449595;265;1262;-60
2022/03/16 11:28:00;;;;;;;;;;;20.70;35.80;;;;;;449860;262;1215;-61
2022/03/16 11:30:01;;;;;;;;;;;20.70;35.80;;;;;;449670;262;1456;-61
2022/03/16 11:32:02;;;;;;;;;;;20.80;35.80;;;;;;449603;262;1115;-60
2022/03/16 11:34:10;;;;;;;;;;;20.80;35.80;;;;;;449706;262;1133;-60
2022/03/16 11:36:06;;;;;;;;;;;20.70;35.80;;;;;;449565;262;1482;-60
2022/03/16 11:38:09;;;;;;;;;;;20.70;36.00;;;;;;449488;263;2159;-61
2022/03/16 11:40:10;;;;;;;;;;;20.70;35.90;;;;;;449486;262;1288;-61
2022/03/16 11:42:13;;;;;;;;;;;20.60;36.20;;;;;;449555;262;1170;-60
2022/03/16 11:44:13;;;;;;;;;;;20.60;36.10;;;;;;449653;262;2531;-60
2022/03/16 11:46:15;;;;;;;;;;;20.60;36.20;;;;;;449439;263;1092;-61
2022/03/16 11:48:16;;;;;;;;;;;20.60;36.30;;;;;;449587;263;1109;-60
2022/03/16 11:50:19;;;;;;;;;;;20.60;36.30;;;;;;449649;262;1244;-60
2022/03/16 11:52:19;;;;;;;;;;;20.70;36.10;;;;;;449551;262;1375;-60
2022/03/16 11:54:20;;;;;;;;;;;20.70;36.10;;;;;;449693;263;1132;-61
2022/03/16 11:56:21;;;;;;;;;;;20.70;36.30;;;;;;449685;262;1258;-60
2022/03/16 11:58:25;;;;;;;;;;;20.60;36.30;;;;;;449714;263;1202;-60
2022/03/16 12:00:24;;;;;;;;;;;20.60;36.30;;;;;;449680;262;1576;-60
2022/03/16 12:02:25;;;;;;;;;;;20.60;36.30;;;;;;449611;262;1133;-60
2022/03/16 12:04:27;;;;;;;;;;;20.60;36.30;;;;;;449625;262;2150;-60
2022/03/16 12:06:28;;;;;;;;;;;20.50;36.40;;;;;;449661;262;1330;-61
2022/03/16 12:08:29;;;;;;;;;;;20.50;36.40;;;;;;449563;263;1218;-60
2022/03/16 12:10:31;;;;;;;;;;;20.50;36.50;;;;;;449652;262;1274;-60